Data for 05/19/2015

Time Sea-Level Adjusted Pressure Absolute Pressure Temperature Relative Humidity Dew Point   
(mb) (inHg) (mb) (inHg) (C) (F) (%) (C) (F)
00:05 1024 30.24 853 25.19 5.1 41.3 74 0.8 33.5
00:10 1024 30.24 853 25.19 5.2 41.3 74 0.8 33.5
00:15 1024 30.24 853 25.19 5.2 41.4 74 0.9 33.6
00:20 1024 30.24 853 25.19 5.2 41.4 73 0.8 33.5
00:25 1024 30.24 853 25.19 5.2 41.4 73 0.9 33.5
00:30 1024 30.24 853 25.19 5.2 41.4 74 1 33.8
00:35 1024 30.24 853 25.19 5.2 41.3 74 0.9 33.6
00:40 1024 30.24 853 25.19 5.2 41.3 74 1 33.8
00:45 1024 30.24 853 25.19 5.2 41.3 74 1 33.8
00:50 1023 30.21 853 25.19 5.2 41.3 74 0.9 33.7
00:55 1023 30.21 853 25.19 5.2 41.3 74 0.9 33.7
01:00 1023 30.21 853 25.19 5.2 41.3 74 1 33.7
01:05 1023 30.21 852 25.16 5.2 41.3 74 1 33.8
01:10 1023 30.21 852 25.16 5.1 41.2 74 0.9 33.6
01:15 1023 30.21 852 25.16 5.1 41.2 74 0.8 33.5
01:20 1023 30.21 852 25.16 5.2 41.3 74 0.8 33.5
01:25 1023 30.21 852 25.16 5.1 41.3 74 0.9 33.6
01:30 1023 30.21 852 25.16 5.1 41.2 74 0.8 33.4
01:35 1023 30.21 852 25.16 5.1 41.2 74 0.8 33.4
01:40 1023 30.21 852 25.16 5.1 41.1 74 0.8 33.4
01:45 1023 30.21 852 25.16 5.1 41.1 73 0.7 33.3
01:50 1023 30.21 852 25.16 5.1 41.1 74 0.7 33.3
01:55 1023 30.21 852 25.16 5.1 41.1 74 0.8 33.4
02:00 1023 30.21 852 25.16 5.1 41.1 73 0.7 33.2
02:05 1022 30.18 852 25.16 5.1 41.2 73 0.7 33.2
02:10 1022 30.18 851 25.13 5.1 41.2 73 0.8 33.4
02:15 1022 30.18 851 25.13 5.1 41.2 73 0.7 33.2
02:20 1022 30.18 851 25.13 5.2 41.3 73 0.7 33.2
02:25 1022 30.18 851 25.13 5.2 41.3 72 0.6 33.1
02:30 1022 30.18 851 25.13 5.3 41.5 73 0.8 33.4
02:35 1022 30.18 851 25.13 5.2 41.4 73 0.8 33.4
02:40 1022 30.18 852 25.16 5.2 41.4 73 0.8 33.4
02:45 1022 30.18 852 25.16 5.2 41.4 73 0.8 33.5
02:50 1022 30.18 852 25.16 5.2 41.4 73 0.8 33.5
02:55 1022 30.18 852 25.16 5.2 41.3 74 1 33.8
03:00 1023 30.21 852 25.16 5.1 41.2 74 1 33.7
03:05 1023 30.21 852 25.16 5.1 41.2 75 1 33.7
03:10 1023 30.21 852 25.16 5.1 41.2 75 1 33.7
03:15 1023 30.21 852 25.16 5.1 41.1 75 1 33.8
03:20 1023 30.21 852 25.16 5 41 75 1 33.8
03:25 1023 30.21 852 25.16 5 41 75 1 33.8
03:30 1023 30.21 852 25.16 5 41 74 0.8 33.5
03:35 1023 30.21 852 25.16 5 41.1 74 0.9 33.5
03:40 1023 30.21 852 25.16 5 41 74 0.8 33.5
03:45 1023 30.21 852 25.16 5 41 74 0.8 33.5
03:50 1023 30.21 852 25.16 5 40.9 74 0.8 33.4
03:55 1023 30.21 852 25.16 4.9 40.9 74 0.7 33.2
04:00 1023 30.21 852 25.16 4.9 40.8 73 0.5 32.9
04:05 1022 30.18 852 25.16 4.9 40.8 74 0.5 33
04:10 1022 30.18 852 25.16 4.8 40.6 74 0.5 32.9
04:15 1023 30.21 852 25.16 4.8 40.6 74 0.4 32.8
04:20 1023 30.21 852 25.16 4.8 40.6 74 0.5 32.8
04:25 1023 30.21 852 25.16 4.8 40.6 73 0.4 32.8
04:30 1022 30.18 852 25.16 4.8 40.6 73 0.4 32.7
04:35 1022 30.18 852 25.16 4.8 40.6 73 0.3 32.5
04:40 1022 30.18 852 25.16 4.8 40.6 73 0.3 32.5
04:45 1022 30.18 851 25.13 4.7 40.5 73 0.3 32.5
04:50 1022 30.18 851 25.13 4.7 40.5 73 0.3 32.5
04:55 1022 30.18 851 25.13 4.7 40.4 73 0.3 32.5
05:00 1022 30.18 851 25.13 4.7 40.4 74 0.4 32.7
05:05 1022 30.18 851 25.13 4.6 40.3 74 0.4 32.7
05:10 1022 30.18 852 25.16 4.6 40.3 74 0.4 32.8
05:15 1022 30.18 852 25.16 4.5 40.1 75 0.4 32.8
05:20 1022 30.18 852 25.16 4.4 40 75 0.5 32.9
05:25 1022 30.18 851 25.13 4.3 39.7 76 0.5 32.9
05:30 1022 30.18 852 25.16 4.2 39.6 77 0.5 33
05:35 1022 30.18 852 25.16 4.1 39.4 78 0.6 33
05:40 1023 30.21 852 25.16 4.1 39.3 78 0.6 33.1
05:45 1023 30.21 852 25.16 4 39.2 78 0.5 32.9
05:50 1023 30.21 852 25.16 4 39.3 77 0.4 32.7
05:55 1023 30.21 852 25.16 4.1 39.3 77 0.4 32.7
06:00 1023 30.21 852 25.16 4.1 39.4 77 0.4 32.8
06:05 1023 30.21 852 25.16 4.1 39.4 76 0.4 32.6
06:10 1023 30.21 852 25.16 4.2 39.5 76 0.3 32.5
06:15 1023 30.21 852 25.16 4.3 39.8 75 0.2 32.4
06:20 1023 30.21 852 25.16 4.5 40.1 73 0.1 32.2
06:25 1023 30.21 852 25.16 4.4 40 73 0 32
06:30 1023 30.21 852 25.16 4.3 39.7 74 -0 32
06:35 1023 30.21 852 25.16 4.3 39.7 73 -0.1 31.9
06:40 1023 30.21 852 25.16 4.3 39.7 73 -0.1 31.8
06:45 1023 30.21 852 25.16 4.4 39.8 72 -0.3 31.5
06:50 1023 30.21 852 25.16 4.5 40.1 71 -0.3 31.5
06:55 1022 30.18 852 25.16 4.6 40.4 71 -0.2 31.6
07:00 1022 30.18 852 25.16 4.6 40.4 69 -0.5 31.1
07:05 1022 30.18 852 25.16 4.8 40.6 69 -0.4 31.3
07:10 1022 30.18 852 25.16 4.9 40.9 66 -0.8 30.6
07:15 1022 30.18 852 25.16 5.1 41.2 67 -0.6 31
07:20 1022 30.18 852 25.16 5.3 41.5 66 -0.7 30.8
07:25 1022 30.18 852 25.16 5.6 42 63 -0.9 30.3
07:30 1022 30.18 851 25.13 5.2 41.4 66 -0.7 30.8
07:35 1022 30.18 851 25.13 5 40.9 66 -0.9 30.4
07:40 1022 30.18 851 25.13 4.7 40.4 67 -0.9 30.4
07:45 1022 30.18 851 25.13 4.8 40.6 67 -0.8 30.6
07:50 1022 30.18 851 25.13 4.7 40.5 68 -0.7 30.7
07:55 1022 30.18 851 25.13 4.8 40.6 68 -0.6 30.9
08:00 1022 30.18 851 25.13 4.7 40.5 69 -0.5 31.1
08:05 1022 30.18 851 25.13 4.9 40.8 69 -0.4 31.3
08:10 1022 30.18 851 25.13 4.8 40.6 69 -0.5 31.1
08:15 1022 30.18 851 25.13 4.7 40.5 69 -0.5 31.1
08:20 1022 30.18 851 25.13 4.6 40.3 69 -0.5 31.1
08:25 1022 30.18 852 25.16 4.6 40.4 70 -0.4 31.2
08:30 1023 30.21 852 25.16 4.7 40.4 70 -0.4 31.3
08:35 1023 30.21 852 25.16 4.5 40.2 69 -0.6 30.8
08:40 1023 30.21 852 25.16 4.6 40.3 66 -1.1 30
08:45 1023 30.21 852 25.16 4.6 40.2 65 -1.3 29.6
08:50 1023 30.21 852 25.16 4.7 40.5 64 -1.4 29.5
08:55 1023 30.21 852 25.16 4.7 40.5 63 -1.8 28.7
09:00 1023 30.21 852 25.16 4.8 40.6 63 -1.6 29.1
09:05 1023 30.21 852 25.16 5 40.9 62 -1.7 28.9
09:10 1022 30.18 852 25.16 5.1 41.2 61 -1.7 28.9
09:15 1022 30.18 852 25.16 5 41 62 -1.6 29.1
09:20 1022 30.18 852 25.16 5.1 41.2 63 -1.4 29.5
09:25 1022 30.18 852 25.16 5.1 41.1 61 -1.8 28.8
09:30 1022 30.18 852 25.16 5.1 41.2 62 -1.6 29.2
09:35 1022 30.18 851 25.13 5.3 41.5 62 -1.5 29.3
09:40 1022 30.18 851 25.13 5.3 41.6 60 -1.7 28.9
09:45 1022 30.18 851 25.13 5.4 41.7 60 -1.7 28.9
09:50 1022 30.18 851 25.13 5.5 41.9 60 -1.6 29.1
09:55 1022 30.18 851 25.13 5.7 42.3 59 -1.7 29
10:00 1022 30.18 851 25.13 5.8 42.4 60 -1.5 29.3
10:05 1022 30.18 851 25.13 5.7 42.2 59 -1.8 28.8
10:10 1022 30.18 851 25.13 5.9 42.6 58 -1.7 28.9
10:15 1022 30.18 851 25.13 5.8 42.4 59 -1.7 28.9
10:20 1022 30.18 851 25.13 6 42.8 58 -1.7 28.9
10:25 1022 30.18 851 25.13 6.1 43 58 -1.6 29.1
10:30 1022 30.18 851 25.13 6.2 43.1 57 -1.6 29.1
10:35 1022 30.18 851 25.13 6.1 43 58 -1.4 29.4
10:40 1022 30.18 851 25.13 6.1 43.1 58 -1.5 29.3
10:45 1022 30.18 851 25.13 6.1 43 58 -1.5 29.3
10:50 1022 30.18 851 25.13 6.2 43.2 57 -1.6 29.1
10:55 1022 30.18 851 25.13 6.6 43.8 55 -1.8 28.8
11:00 1022 30.18 851 25.13 7 44.5 54 -1.6 29.2
11:05 1022 30.18 851 25.13 7.5 45.5 52 -1.6 29.1
11:10 1022 30.18 851 25.13 7.5 45.6 53 -1.4 29.5
11:15 1022 30.18 851 25.13 7.8 46.1 51 -1.6 29
11:20 1022 30.18 851 25.13 7.9 46.2 50 -1.9 28.7
11:25 1022 30.18 851 25.13 7.5 45.6 51 -1.9 28.6
11:30 1022 30.18 851 25.13 7.6 45.6 51 -1.8 28.8
11:35 1022 30.18 851 25.13 7.5 45.5 51 -2 28.4
11:40 1022 30.18 851 25.13 7.3 45.2 52 -1.8 28.7
11:45 1022 30.18 851 25.13 7.5 45.6 51 -1.9 28.7
11:50 1022 30.18 851 25.13 8 46.3 48 -2.5 27.5
11:55 1022 30.18 851 25.13 8.2 46.8 49 -1.9 28.6
12:00 1022 30.18 851 25.13 8.4 47.1 48 -2.1 28.3
12:05 1022 30.18 851 25.13 8.4 47.2 47 -2.3 27.8
12:10 1021 30.15 851 25.13 8.7 47.7 47 -1.8 28.7
12:15 1021 30.15 851 25.13 8.9 48 47 -1.7 28.9
12:20 1021 30.15 851 25.13 8.9 47.9 48 -1.7 29
12:25 1021 30.15 851 25.13 8.5 47.3 48 -1.9 28.6
12:30 1021 30.15 851 25.13 8.8 47.8 48 -1.7 29
12:35 1021 30.15 850 25.1 8.8 47.8 48 -1.7 28.9
12:40 1021 30.15 850 25.1 8.7 47.6 47 -1.9 28.5
12:45 1021 30.15 850 25.1 8.7 47.7 48 -1.6 29.1
12:50 1021 30.15 850 25.1 8.9 48 48 -1.5 29.3
12:55 1021 30.15 850 25.1 8.9 48.1 48 -1.3 29.6
13:00 1021 30.15 850 25.1 8.8 47.8 48 -1.5 29.2
13:05 1021 30.15 850 25.1 8.9 48 49 -1.2 29.9
13:10 1021 30.15 850 25.1 8.9 48 48 -1.5 29.3
13:15 1021 30.15 850 25.1 8.7 47.7 48 -1.6 29.1
13:20 1021 30.15 850 25.1 8.7 47.7 47 -1.8 28.8
13:25 1021 30.15 850 25.1 8.5 47.3 48 -1.8 28.8
13:30 1021 30.15 851 25.13 8.6 47.4 49 -1.6 29.2
13:35 1021 30.15 851 25.13 8.7 47.6 49 -1.4 29.4
13:40 1021 30.15 851 25.13 8.6 47.4 49 -1.5 29.4
13:45 1021 30.15 851 25.13 8.1 46.6 50 -1.7 29
13:50 1021 30.15 851 25.13 7.8 46 51 -1.7 28.9
13:55 1022 30.18 851 25.13 7.8 46.1 51 -1.8 28.8
14:00 1022 30.18 851 25.13 7.5 45.5 52 -1.6 29.1
14:05 1022 30.18 851 25.13 7.3 45.1 53 -1.6 29
14:10 1022 30.18 851 25.13 7.4 45.3 52 -1.8 28.7
14:15 1022 30.18 851 25.13 7.4 45.4 52 -1.9 28.6
14:20 1022 30.18 851 25.13 7.4 45.3 52 -1.7 28.9
14:25 1022 30.18 851 25.13 7.6 45.7 51 -1.8 28.8
14:30 1022 30.18 851 25.13 7.4 45.3 54 -1.4 29.6
14:35 1022 30.18 851 25.13 7.3 45.1 54 -1.4 29.5
14:40 1022 30.18 851 25.13 7.4 45.3 55 -1 30.1
14:45 1022 30.18 851 25.13 7.5 45.5 55 -0.9 30.4
14:50 1022 30.18 851 25.13 7.6 45.7 56 -0.6 30.8
14:55 1022 30.18 851 25.13 7.5 45.5 56 -0.7 30.8
15:00 1022 30.18 851 25.13 7.5 45.5 55 -0.9 30.3
15:05 1022 30.18 851 25.13 7.5 45.4 56 -0.8 30.6
15:10 1022 30.18 851 25.13 7.4 45.3 56 -0.7 30.7
15:15 1022 30.18 851 25.13 7.5 45.5 55 -0.9 30.5
15:20 1022 30.18 851 25.13 7.6 45.7 56 -0.6 30.9
15:25 1022 30.18 851 25.13 7.6 45.7 57 -0.4 31.3
15:30 1022 30.18 851 25.13 7.6 45.6 57 -0.4 31.2
15:35 1022 30.18 851 25.13 7.5 45.5 58 -0.3 31.4
15:40 1022 30.18 851 25.13 7.7 45.9 58 0 32
15:45 1022 30.18 851 25.13 7.6 45.7 58 -0 32
15:50 1022 30.18 851 25.13 7.6 45.6 60 0.4 32.6
15:55 1022 30.18 851 25.13 7.6 45.6 62 0.7 33.3
16:00 1022 30.18 851 25.13 7.1 44.9 65 0.9 33.7
16:05 1022 30.18 851 25.13 6.7 44.1 65 0.7 33.2
16:10 1021 30.15 851 25.13 6.7 44.1 66 0.9 33.6
16:15 1021 30.15 851 25.13 6.7 44 67 0.9 33.7
16:20 1022 30.18 851 25.13 6.8 44.3 66 0.9 33.5
16:25 1022 30.18 851 25.13 6.9 44.3 67 1.1 34
16:30 1022 30.18 851 25.13 6.8 44.3 66 0.9 33.7
16:35 1022 30.18 851 25.13 6.7 44.1 67 1 33.8
16:40 1022 30.18 851 25.13 6.9 44.4 66 1 33.8
16:45 1021 30.15 851 25.13 6.9 44.5 66 1 33.8
16:50 1021 30.15 851 25.13 7.1 44.8 65 1 33.8
16:55 1021 30.15 851 25.13 6.9 44.5 65 0.9 33.7
17:00 1021 30.15 851 25.13 6.8 44.3 66 1 33.8
17:05 1021 30.15 851 25.13 6.8 44.3 66 1 33.7
17:10 1021 30.15 851 25.13 6.8 44.3 67 1.1 34
17:15 1021 30.15 851 25.13 6.9 44.4 66 1 33.9
17:20 1021 30.15 851 25.13 6.9 44.4 67 1.1 34
17:25 1021 30.15 850 25.1 6.8 44.2 67 1.2 34.1
17:30 1021 30.15 850 25.1 6.7 44.1 68 1.2 34.1
17:35 1021 30.15 850 25.1 6.6 43.9 68 1.3 34.3
17:40 1021 30.15 850 25.1 6.6 43.9 69 1.4 34.5
17:45 1021 30.15 850 25.1 6.6 43.8 69 1.4 34.5
17:50 1021 30.15 850 25.1 6.5 43.7 70 1.5 34.8
17:55 1021 30.15 850 25.1 6.6 43.9 70 1.6 34.8
18:00 1021 30.15 850 25.1 6.5 43.8 70 1.5 34.7
18:05 1021 30.15 850 25.1 6.4 43.5 72 1.7 35.1
18:10 1021 30.15 850 25.1 6.3 43.4 73 1.9 35.4
18:15 1021 30.15 850 25.1 6.1 43 75 2 35.6
18:20 1021 30.15 850 25.1 6.1 43.1 75 2.1 35.7
18:25 1021 30.15 850 25.1 6.1 43 76 2.1 35.8
18:30 1021 30.15 850 25.1 6 42.9 75 2 35.6
18:35 1021 30.15 850 25.1 6 42.8 76 2.2 35.9
18:40 1021 30.15 850 25.1 5.9 42.7 77 2.2 35.9
18:45 1021 30.15 850 25.1 5.9 42.6 77 2.2 35.9
18:50 1021 30.15 850 25.1 5.8 42.5 78 2.3 36.1
18:55 1021 30.15 850 25.1 5.6 42.1 79 2.3 36.1
19:00 1021 30.15 850 25.1 5.5 41.9 80 2.4 36.3
19:05 1021 30.15 850 25.1 5.3 41.6 81 2.4 36.3
19:10 1021 30.15 850 25.1 5.3 41.5 82 2.4 36.3
19:15 1021 30.15 850 25.1 5.2 41.4 82 2.5 36.5
19:20 1021 30.15 850 25.1 5.2 41.3 82 2.3 36.2
19:25 1021 30.15 850 25.1 5.2 41.3 81 2.2 36
19:30 1021 30.15 850 25.1 5.2 41.4 81 2.3 36.1
19:35 1021 30.15 850 25.1 5.2 41.4 81 2.3 36.1
19:40 1021 30.15 850 25.1 5.2 41.4 81 2.2 36
19:45 1021 30.15 850 25.1 5.3 41.6 81 2.3 36.1
19:50 1021 30.15 850 25.1 5.4 41.7 80 2.3 36.1
19:55 1021 30.15 850 25.1 5.5 41.9 80 2.3 36.1
20:00 1021 30.15 850 25.1 5.7 42.2 79 2.4 36.3
20:05 1021 30.15 850 25.1 5.7 42.3 79 2.4 36.2
20:10 1021 30.15 850 25.1 5.8 42.4 78 2.3 36.1
20:15 1021 30.15 850 25.1 5.8 42.4 78 2.2 35.9
20:20 1021 30.15 851 25.13 5.9 42.6 77 2.1 35.9
20:25 1021 30.15 851 25.13 5.9 42.7 76 2.1 35.7
20:30 1022 30.18 851 25.13 6.1 42.9 75 2.1 35.7
20:35 1022 30.18 851 25.13 6.2 43.2 75 2.2 35.9
20:40 1022 30.18 851 25.13 6.3 43.3 75 2.1 35.8
20:45 1022 30.18 851 25.13 6.4 43.5 74 2.1 35.7
20:50 1022 30.18 851 25.13 6.4 43.5 74 2.1 35.8
20:55 1022 30.18 851 25.13 6.4 43.6 76 2.6 36.6
21:00 1022 30.18 851 25.13 6.2 43.1 80 3 37.4
21:05 1022 30.18 851 25.13 5.9 42.6 81 3 37.3
21:10 1022 30.18 851 25.13 5.8 42.4 82 3 37.3
21:15 1022 30.18 851 25.13 5.7 42.3 82 2.9 37.2
21:20 1022 30.18 851 25.13 5.7 42.3 81 2.7 36.9
21:25 1022 30.18 851 25.13 5.9 42.6 79 2.5 36.6
21:30 1022 30.18 851 25.13 6 42.8 79 2.6 36.7
21:35 1022 30.18 851 25.13 6 42.8 77 2.3 36.1
21:40 1022 30.18 851 25.13 6.2 43.1 76 2.2 35.9
21:45 1022 30.18 851 25.13 6.1 43.1 75 2.1 35.9
21:50 1022 30.18 851 25.13 6.1 43.1 74 1.8 35.3
21:55 1021 30.15 851 25.13 6.2 43.2 71 1.4 34.6
22:00 1022 30.18 851 25.13 6.4 43.5 70 1.4 34.5
22:05 1022 30.18 851 25.13 6.4 43.6 70 1.3 34.4
22:10 1021 30.15 851 25.13 6.6 43.9 69 1.4 34.5
22:15 1022 30.18 851 25.13 6.6 43.9 69 1.4 34.5
22:20 1022 30.18 851 25.13 6.6 43.9 69 1.4 34.6
22:25 1022 30.18 851 25.13 6.6 43.8 69 1.4 34.5
22:30 1022 30.18 851 25.13 6.6 43.8 69 1.2 34.2
22:35 1022 30.18 851 25.13 6.5 43.7 68 1.1 34.1
22:40 1022 30.18 851 25.13 6.5 43.7 68 1.1 34.1
22:45 1022 30.18 851 25.13 6.5 43.7 69 1.1 34.1
22:50 1022 30.18 851 25.13 6.4 43.5 68 1 33.8
22:55 1022 30.18 851 25.13 6.4 43.6 68 1.1 33.9
23:00 1022 30.18 851 25.13 6.4 43.5 69 1 33.9
23:05 1022 30.18 851 25.13 6.4 43.4 68 1 33.7
23:10 1022 30.18 851 25.13 6.3 43.3 69 1.1 33.9
23:15 1022 30.18 851 25.13 6.2 43.1 70 1.1 33.9
23:20 1022 30.18 851 25.13 6.2 43.1 70 1 33.9
23:25 1022 30.18 851 25.13 6.1 43 70 1.1 33.9
23:30 1022 30.18 851 25.13 6 42.8 71 1.1 34
23:35 1022 30.18 851 25.13 6 42.8 71 1.1 33.9
23:40 1022 30.18 851 25.13 6 42.8 71 1.1 34
23:45 1022 30.18 851 25.13 6 42.9 71 1.1 34
23:50 1022 30.18 851 25.13 6 42.9 71 1.1 34
23:55 1022 30.18 851 25.13 6 42.8 71 1.1 34
24:00 1022 30.18 851 25.13 5.9 42.7 70 0.9 33.6